createdAt,value
2022-07-26T00:01:20.330Z,36.37
2022-07-26T00:03:50.278Z,38.45
2022-07-26T00:06:19.187Z,38.97
2022-07-26T00:08:47.967Z,37.72
2022-07-26T00:11:16.036Z,37.79
2022-07-26T00:13:43.834Z,38.24
2022-07-26T00:16:11.994Z,37.44
2022-07-26T00:18:39.703Z,37.67
2022-07-26T00:21:07.257Z,38.68
2022-07-26T00:23:34.745Z,42.49
2022-07-26T00:26:02.457Z,43.74
2022-07-26T00:28:30.021Z,44.78
2022-07-26T00:30:57.542Z,45.36
2022-07-26T00:33:25.244Z,45.29
2022-07-26T00:35:52.822Z,45.77
2022-07-26T00:38:20.337Z,46.33
2022-07-26T00:40:48.226Z,46.93
2022-07-26T00:43:15.888Z,46.41
2022-07-26T00:45:43.784Z,46.36
2022-07-26T00:48:11.631Z,46.69
2022-07-26T00:50:39.201Z,46.87
2022-07-26T00:53:07.035Z,46.21
2022-07-26T00:55:35.010Z,45.56
2022-07-26T00:58:02.607Z,44.36
2022-07-26T01:00:30.387Z,42.94
2022-07-26T01:03:00.573Z,42.89
2022-07-26T01:05:29.187Z,42.94
2022-07-26T01:07:57.621Z,42.78
2022-07-26T01:10:26.021Z,41.04
2022-07-26T01:12:53.845Z,39.95
2022-07-26T01:15:21.954Z,39.99
2022-07-26T01:17:49.842Z,39.52
2022-07-26T01:20:17.460Z,39.11
2022-07-26T01:22:45.006Z,38.91
2022-07-26T01:25:12.869Z,38.98
2022-07-26T01:27:40.586Z,38.70
2022-07-26T01:30:11.314Z,37.81
2022-07-26T01:32:39.481Z,37.48
2022-07-26T01:35:07.952Z,36.99
2022-07-26T01:37:35.749Z,36.79
2022-07-26T01:40:05.285Z,36.89
2022-07-26T01:42:34.718Z,36.45
2022-07-26T01:45:02.542Z,36.56
2022-07-26T01:47:30.362Z,36.37
2022-07-26T01:49:57.902Z,36.27
2022-07-26T01:52:27.431Z,35.71
2022-07-26T01:54:55.462Z,35.68
2022-07-26T01:57:22.955Z,34.81
2022-07-26T01:59:50.568Z,34.83
2022-07-26T02:02:18.430Z,34.91
2022-07-26T02:05:01.953Z,34.79
2022-07-26T02:07:38.741Z,34.68
2022-07-26T02:10:08.442Z,34.57
2022-07-26T02:12:40.189Z,34.86
2022-07-26T02:15:10.121Z,34.60
2022-07-26T02:17:37.756Z,34.95
2022-07-26T02:20:07.161Z,35.19
2022-07-26T02:22:35.679Z,35.35
2022-07-26T02:25:05.471Z,35.28
2022-07-26T02:27:33.558Z,35.23
2022-07-26T02:30:02.013Z,35.15
2022-07-26T02:32:29.510Z,35.31
2022-07-26T02:34:57.207Z,35.28
2022-07-26T02:37:24.688Z,35.43
2022-07-26T02:39:52.847Z,35.25
2022-07-26T02:42:20.752Z,35.01
2022-07-26T02:45:07.798Z,35.54
2022-07-26T02:47:35.578Z,35.51
2022-07-26T02:50:03.093Z,35.93
2022-07-26T02:52:30.578Z,35.79
2022-07-26T02:54:58.669Z,36.23
2022-07-26T02:57:26.260Z,36.20
2022-07-26T02:59:53.762Z,36.14
2022-07-26T03:02:21.457Z,35.90
2022-07-26T03:04:50.403Z,36.00
2022-07-26T03:07:17.902Z,36.45
2022-07-26T03:09:45.651Z,36.30
2022-07-26T03:12:13.114Z,36.11
2022-07-26T03:14:40.620Z,36.12
2022-07-26T03:17:08.319Z,35.78
2022-07-26T03:19:35.777Z,35.70
2022-07-26T03:22:03.349Z,36.32
2022-07-26T03:24:31.102Z,36.13
2022-07-26T03:26:58.691Z,36.62
2022-07-26T03:29:26.338Z,36.41
2022-07-26T03:31:54.189Z,35.92
2022-07-26T03:34:21.808Z,35.95
2022-07-26T03:36:49.340Z,35.55
2022-07-26T03:39:17.110Z,35.61
2022-07-26T03:41:44.656Z,35.73
2022-07-26T03:44:12.175Z,35.52
2022-07-26T03:46:39.912Z,35.45
2022-07-26T03:49:07.507Z,35.59
2022-07-26T03:51:35.097Z,35.38
2022-07-26T03:54:02.819Z,35.15
2022-07-26T03:56:33.301Z,35.09
2022-07-26T03:59:11.150Z,35.48
2022-07-26T04:01:42.074Z,35.64
2022-07-26T04:04:11.970Z,35.74
2022-07-26T04:06:40.543Z,36.11
2022-07-26T04:09:08.800Z,36.17
2022-07-26T04:11:36.432Z,35.67
2022-07-26T04:14:04.595Z,36.17
2022-07-26T04:16:32.669Z,36.52
2022-07-26T04:19:00.273Z,36.19
2022-07-26T04:21:28.137Z,36.35
2022-07-26T04:23:55.689Z,36.35
2022-07-26T04:26:23.481Z,36.90
2022-07-26T04:28:51.239Z,37.26
2022-07-26T04:31:19.015Z,37.42
2022-07-26T04:33:46.865Z,37.45
2022-07-26T04:36:14.714Z,38.07
2022-07-26T04:38:42.343Z,37.58
2022-07-26T04:41:10.225Z,38.05
2022-07-26T04:43:37.972Z,38.07
2022-07-26T04:46:05.689Z,38.05
2022-07-26T04:48:33.293Z,38.18
2022-07-26T04:51:01.759Z,38.13
2022-07-26T04:53:29.239Z,38.05
2022-07-26T04:55:56.761Z,38.37
2022-07-26T04:58:24.435Z,39.11
2022-07-26T05:03:39.969Z,38.29
2022-07-26T05:06:07.739Z,38.89
2022-07-26T05:08:35.292Z,39.26
2022-07-26T05:11:04.257Z,39.80
2022-07-26T05:13:31.886Z,39.91
2022-07-26T05:16:00.102Z,39.69
2022-07-26T05:18:29.984Z,39.76
2022-07-26T05:21:00.460Z,39.60
2022-07-26T05:23:27.978Z,39.69
2022-07-26T05:25:56.431Z,39.29
2022-07-26T05:28:24.051Z,38.58
2022-07-26T05:30:52.169Z,38.78
2022-07-26T05:33:20.503Z,38.44
2022-07-26T05:35:48.150Z,38.32
2022-07-26T05:38:15.604Z,38.30
2022-07-26T05:40:47.280Z,42.23
2022-07-26T05:43:18.338Z,42.89
2022-07-26T05:45:46.295Z,42.39
2022-07-26T05:48:14.044Z,42.60
2022-07-26T05:50:41.600Z,42.38
2022-07-26T05:53:09.429Z,42.01
2022-07-26T05:55:36.929Z,42.32
2022-07-26T05:58:04.465Z,43.01
2022-07-26T06:00:32.358Z,44.20
2022-07-26T06:03:00.033Z,44.89
2022-07-26T06:05:27.546Z,45.23
2022-07-26T06:07:55.335Z,45.77
2022-07-26T06:10:22.871Z,45.12
2022-07-26T06:12:50.438Z,44.64
2022-07-26T06:15:18.475Z,44.64
2022-07-26T06:17:45.977Z,44.60
2022-07-26T06:20:13.438Z,45.05
2022-07-26T06:22:41.218Z,45.40
2022-07-26T06:25:09.149Z,45.73
2022-07-26T06:27:36.733Z,44.92
2022-07-26T06:30:05.517Z,45.03
2022-07-26T06:32:33.028Z,44.96
2022-07-26T06:35:00.913Z,45.51
2022-07-26T06:37:28.699Z,45.71
2022-07-26T06:39:56.294Z,45.87
2022-07-26T06:42:24.743Z,45.80
2022-07-26T06:44:52.575Z,45.52
2022-07-26T06:47:20.032Z,44.46
2022-07-26T06:49:47.533Z,44.81
2022-07-26T06:52:15.276Z,44.09
2022-07-26T06:54:42.873Z,43.75
2022-07-26T06:57:10.597Z,43.38
2022-07-26T06:59:38.499Z,43.91
2022-07-26T07:02:06.239Z,43.49
2022-07-26T07:04:34.814Z,44.11
2022-07-26T07:07:05.718Z,43.77
2022-07-26T07:09:35.586Z,44.36
2022-07-26T07:12:09.720Z,43.91
2022-07-26T07:14:39.144Z,44.52
2022-07-26T07:17:12.247Z,44.36
2022-07-26T07:19:41.673Z,44.15
2022-07-26T07:22:12.269Z,43.89
2022-07-26T07:24:41.634Z,44.04
2022-07-26T07:27:10.418Z,44.25
2022-07-26T07:29:41.342Z,43.10
2022-07-26T07:32:18.082Z,42.53
2022-07-26T07:34:48.621Z,40.72
2022-07-26T07:37:17.940Z,40.27
2022-07-26T07:39:50.741Z,38.71
2022-07-26T07:42:19.915Z,37.55
2022-07-26T07:44:47.782Z,36.99
2022-07-26T07:47:15.788Z,36.95
2022-07-26T07:49:43.609Z,37.04
2022-07-26T07:52:11.219Z,37.39
2022-07-26T07:54:39.120Z,36.02
2022-07-26T07:57:06.687Z,36.55
2022-07-26T07:59:39.221Z,36.46
2022-07-26T08:02:07.839Z,36.55
2022-07-26T08:04:35.980Z,37.48
2022-07-26T08:07:03.673Z,37.77
2022-07-26T08:09:34.006Z,36.47
2022-07-26T08:12:02.694Z,36.16
2022-07-26T08:14:30.707Z,34.90
2022-07-26T08:16:58.563Z,34.21
2022-07-26T08:19:40.949Z,32.07
2022-07-26T08:22:11.088Z,31.63
2022-07-26T08:24:38.971Z,30.09
2022-07-26T08:27:07.299Z,29.75
2022-07-26T08:29:35.121Z,29.17
2022-07-26T08:32:02.652Z,29.37
2022-07-26T08:34:30.304Z,29.03
2022-07-26T08:37:15.990Z,28.72
2022-07-26T08:39:44.994Z,28.94
2022-07-26T08:42:23.186Z,30.18
2022-07-26T08:44:51.954Z,28.85
2022-07-26T08:47:39.928Z,28.09
2022-07-26T08:50:10.003Z,28.39
2022-07-26T08:52:40.999Z,28.37
2022-07-26T08:55:09.367Z,27.56
2022-07-26T08:57:37.151Z,27.98
2022-07-26T09:00:29.624Z,28.57
2022-07-26T09:02:59.666Z,28.38
2022-07-26T09:05:29.123Z,29.77
2022-07-26T09:07:57.882Z,28.17
2022-07-26T09:10:26.508Z,28.31
2022-07-26T09:12:58.573Z,27.41
2022-07-26T09:15:28.167Z,27.24
2022-07-26T09:17:58.121Z,26.91
2022-07-26T09:20:32.158Z,26.97
2022-07-26T09:23:14.076Z,26.78
2022-07-26T09:25:45.375Z,25.12
2022-07-26T09:28:31.603Z,25.63
2022-07-26T09:31:04.016Z,25.38
2022-07-26T09:33:47.467Z,25.09
2022-07-26T09:36:16.025Z,24.86
2022-07-26T09:38:53.799Z,24.87
2022-07-26T09:41:36.752Z,25.50
2022-07-26T09:44:19.706Z,24.76
2022-07-26T09:46:59.202Z,24.90
2022-07-26T09:49:40.079Z,24.62
2022-07-26T09:52:20.513Z,25.10
2022-07-26T09:54:49.663Z,24.84
2022-07-26T09:57:19.686Z,25.72
2022-07-26T09:59:47.862Z,24.33
2022-07-26T10:02:15.913Z,24.28
2022-07-26T10:04:44.466Z,24.22
2022-07-26T10:07:12.136Z,25.52
2022-07-26T10:09:49.122Z,27.09
2022-07-26T10:12:17.682Z,27.61
2022-07-26T10:14:48.021Z,25.60
2022-07-26T10:17:31.324Z,25.02
2022-07-26T10:20:09.279Z,24.87
2022-07-26T10:22:47.587Z,25.08
2022-07-26T10:25:18.351Z,24.25
2022-07-26T10:27:48.513Z,24.90
2022-07-26T10:30:20.095Z,22.72
2022-07-26T10:33:10.259Z,23.71
2022-07-26T10:35:43.547Z,23.89
2022-07-26T10:38:26.478Z,23.23
2022-07-26T10:41:01.538Z,24.01
2022-07-26T10:43:40.558Z,24.31
2022-07-26T10:46:18.729Z,24.90
2022-07-26T10:49:07.485Z,23.22
2022-07-26T10:51:41.026Z,22.58
2022-07-26T10:54:13.909Z,22.44
2022-07-26T10:56:42.579Z,20.94
2022-07-26T10:59:10.087Z,20.34
2022-07-26T11:01:41.748Z,20.46
2022-07-26T11:04:20.577Z,19.10
2022-07-26T11:06:48.963Z,19.69
2022-07-26T11:09:20.709Z,19.66
2022-07-26T11:11:52.480Z,19.96
2022-07-26T11:14:22.841Z,19.99
2022-07-26T11:16:51.074Z,20.01
2022-07-26T11:19:27.591Z,20.01
2022-07-26T11:22:00.870Z,19.88
2022-07-26T11:24:29.480Z,20.58
2022-07-26T11:27:04.307Z,20.24
2022-07-26T11:29:37.970Z,20.14
2022-07-26T11:32:20.461Z,19.69
2022-07-26T11:35:03.788Z,18.99
2022-07-26T11:37:32.113Z,19.09
2022-07-26T11:39:59.579Z,18.46
2022-07-26T11:42:27.206Z,18.87
2022-07-26T11:44:54.928Z,18.29
2022-07-26T11:47:25.709Z,19.93
2022-07-26T11:50:12.894Z,18.02
2022-07-26T11:52:45.219Z,18.35
2022-07-26T11:55:12.989Z,18.23
2022-07-26T11:57:40.822Z,17.87
2022-07-26T12:00:09.627Z,17.64
2022-07-26T12:02:40.205Z,18.59
2022-07-26T12:05:23.605Z,18.29
2022-07-26T12:08:02.831Z,18.22
2022-07-26T12:10:30.699Z,16.93
2022-07-26T12:13:14.213Z,17.16
2022-07-26T12:15:53.428Z,16.77
2022-07-26T12:18:34.061Z,16.75
2022-07-26T12:21:08.863Z,16.47
2022-07-26T12:23:46.361Z,17.66
2022-07-26T12:26:27.205Z,17.24
2022-07-26T12:28:58.158Z,17.21
2022-07-26T12:31:34.218Z,17.45
2022-07-26T12:34:02.214Z,18.69
2022-07-26T12:36:33.459Z,17.63
2022-07-26T12:39:01.424Z,17.45
2022-07-26T12:41:33.927Z,17.73
2022-07-26T12:44:01.587Z,18.22
2022-07-26T12:46:36.030Z,16.61
2022-07-26T12:49:05.580Z,17.40
2022-07-26T12:51:33.703Z,16.89
2022-07-26T12:54:01.497Z,17.33
2022-07-26T12:56:29.567Z,17.63
2022-07-26T12:59:01.504Z,17.65
2022-07-26T13:01:31.933Z,17.05
2022-07-26T13:04:00.400Z,16.55
2022-07-26T13:06:28.192Z,15.92
2022-07-26T13:08:56.627Z,16.51
2022-07-26T13:11:25.284Z,16.64
2022-07-26T13:13:52.823Z,17.12
2022-07-26T13:16:20.657Z,17.29
2022-07-26T13:18:48.180Z,16.53
2022-07-26T13:21:15.822Z,15.51
2022-07-26T13:23:43.597Z,15.90
2022-07-26T13:26:11.292Z,15.18
2022-07-26T13:28:40.562Z,15.35
2022-07-26T13:31:08.417Z,15.49
2022-07-26T13:33:39.325Z,15.34
2022-07-26T13:36:06.979Z,15.40
2022-07-26T13:38:35.109Z,16.56
2022-07-26T13:41:04.392Z,15.83
2022-07-26T13:43:32.262Z,14.98
2022-07-26T13:46:00.058Z,15.25
2022-07-26T13:48:28.117Z,15.14
2022-07-26T13:50:57.510Z,14.44
2022-07-26T13:53:25.637Z,14.59
2022-07-26T13:55:53.558Z,15.73
2022-07-26T13:58:21.774Z,15.78
2022-07-26T14:00:49.821Z,15.40
2022-07-26T14:03:17.570Z,15.37
2022-07-26T14:05:45.470Z,14.60
2022-07-26T14:08:13.355Z,14.92
2022-07-26T14:10:41.455Z,15.24
2022-07-26T14:13:09.400Z,14.93
2022-07-26T14:15:37.481Z,14.43
2022-07-26T14:18:05.891Z,14.47
2022-07-26T14:20:33.413Z,14.28
2022-07-26T14:23:01.318Z,14.11
2022-07-26T14:25:29.203Z,14.11
2022-07-26T14:28:00.109Z,14.08
2022-07-26T14:30:28.072Z,13.85
2022-07-26T14:32:55.787Z,14.79
2022-07-26T14:35:23.401Z,13.66
2022-07-26T14:37:51.303Z,13.54
2022-07-26T14:40:18.940Z,13.80
2022-07-26T14:42:47.281Z,14.03
2022-07-26T14:45:15.657Z,14.71
2022-07-26T14:47:43.990Z,14.25
2022-07-26T14:50:13.740Z,14.36
2022-07-26T14:52:47.964Z,14.93
2022-07-26T14:55:20.512Z,13.63
2022-07-26T14:57:52.935Z,14.31
2022-07-26T15:00:20.531Z,14.18
2022-07-26T15:02:49.068Z,14.79
2022-07-26T15:05:18.023Z,14.83
2022-07-26T15:07:46.107Z,14.18
2022-07-26T15:10:14.397Z,14.09
2022-07-26T15:12:43.641Z,14.34
2022-07-26T15:15:14.639Z,13.92
2022-07-26T15:17:42.653Z,13.95
2022-07-26T15:20:10.267Z,14.13
2022-07-26T15:22:37.968Z,13.06
2022-07-26T15:25:08.933Z,13.09
2022-07-26T15:27:36.821Z,13.34
2022-07-26T15:30:10.235Z,13.59
2022-07-26T15:32:42.352Z,13.96
2022-07-26T15:35:14.438Z,13.79
2022-07-26T15:37:43.909Z,13.78
2022-07-26T15:40:12.640Z,14.47
2022-07-26T15:42:44.313Z,14.65
2022-07-26T15:45:14.033Z,15.39
2022-07-26T15:48:05.531Z,15.51
2022-07-26T15:50:29.973Z,14.83
2022-07-26T15:52:57.635Z,14.40
2022-07-26T15:55:25.392Z,14.23
2022-07-26T15:57:54.649Z,14.80
2022-07-26T16:00:22.315Z,14.83
2022-07-26T16:02:50.032Z,14.86
2022-07-26T16:05:18.829Z,14.65
2022-07-26T16:07:46.491Z,15.07
2022-07-26T16:10:14.996Z,14.63
2022-07-26T16:12:42.931Z,15.19
2022-07-26T16:15:11.855Z,15.50
2022-07-26T16:17:40.038Z,15.55
2022-07-26T16:20:08.736Z,15.78
2022-07-26T16:22:41.002Z,16.17
2022-07-26T16:25:13.205Z,15.94
2022-07-26T16:27:43.271Z,16.48
2022-07-26T16:30:16.224Z,17.22
2022-07-26T16:32:43.823Z,17.79
2022-07-26T16:35:12.546Z,17.95
2022-07-26T16:37:41.457Z,17.96
2022-07-26T16:40:10.695Z,18.34
2022-07-26T16:42:38.581Z,18.88
2022-07-26T16:45:06.853Z,20.56
2022-07-26T16:47:34.398Z,20.27
2022-07-26T16:50:02.386Z,21.33
2022-07-26T16:52:30.100Z,22.08
2022-07-26T16:54:57.876Z,21.51
2022-07-26T16:57:26.129Z,21.10
2022-07-26T16:59:53.649Z,20.86
2022-07-26T17:02:21.305Z,20.67
2022-07-26T17:04:49.167Z,25.12
2022-07-26T17:07:25.365Z,27.92
2022-07-26T17:09:55.792Z,29.90
2022-07-26T17:12:24.282Z,31.49
2022-07-26T17:14:52.059Z,32.67
2022-07-26T17:17:19.937Z,33.40
2022-07-26T17:19:47.658Z,33.51
2022-07-26T17:22:15.974Z,34.37
2022-07-26T17:24:44.096Z,34.75
2022-07-26T17:27:11.818Z,35.81
2022-07-26T17:29:39.325Z,36.15
2022-07-26T17:32:07.892Z,35.52
2022-07-26T17:34:35.680Z,35.94
2022-07-26T17:37:05.954Z,36.40
2022-07-26T17:39:52.352Z,36.52
2022-07-26T17:42:21.978Z,36.46
2022-07-26T17:44:50.610Z,36.93
2022-07-26T17:47:29.192Z,37.09
2022-07-26T17:50:35.955Z,37.65
2022-07-26T17:52:52.745Z,37.56
2022-07-26T17:55:21.712Z,38.39
2022-07-26T17:57:49.947Z,38.21
2022-07-26T18:00:23.284Z,38.29
2022-07-26T18:02:54.871Z,37.76
2022-07-26T18:05:22.707Z,39.29
2022-07-26T18:07:50.428Z,39.77
2022-07-26T18:10:18.218Z,39.82
2022-07-26T18:12:45.813Z,39.13
2022-07-26T18:15:13.581Z,40.08
2022-07-26T18:17:41.620Z,40.27
2022-07-26T18:20:10.311Z,39.82
2022-07-26T18:22:38.348Z,40.28
2022-07-26T18:25:07.429Z,40.03
2022-07-26T18:27:35.231Z,40.75
2022-07-26T18:30:03.912Z,40.74
2022-07-26T18:32:32.000Z,40.41
2022-07-26T18:34:59.515Z,40.79
2022-07-26T18:37:26.994Z,40.54
2022-07-26T18:39:57.839Z,40.07
2022-07-26T18:42:27.006Z,40.43
2022-07-26T18:44:54.561Z,39.75
2022-07-26T18:47:22.721Z,40.01
2022-07-26T18:49:50.803Z,39.72
2022-07-26T18:52:28.640Z,39.60
2022-07-26T18:55:06.735Z,39.54
2022-07-26T18:57:42.103Z,39.89
2022-07-26T19:00:14.363Z,39.80
2022-07-26T19:02:43.829Z,40.32
2022-07-26T19:05:12.059Z,40.52
2022-07-26T19:07:40.361Z,40.53
2022-07-26T19:10:10.497Z,40.50
2022-07-26T19:12:38.651Z,40.65
2022-07-26T19:15:08.544Z,40.26
2022-07-26T19:17:37.530Z,40.86
2022-07-26T19:20:07.146Z,40.79
2022-07-26T19:22:35.323Z,40.44
2022-07-26T19:25:04.179Z,40.28
2022-07-26T19:27:32.036Z,40.52
2022-07-26T19:29:59.541Z,40.67
2022-07-26T19:32:31.732Z,40.75
2022-07-26T19:35:01.318Z,40.96
2022-07-26T19:37:28.826Z,41.50
2022-07-26T19:40:00.339Z,40.97
2022-07-26T19:42:31.091Z,41.53
2022-07-26T19:44:59.520Z,41.89
2022-07-26T19:47:29.823Z,41.68
2022-07-26T19:49:58.751Z,41.72
2022-07-26T19:52:26.405Z,41.64
2022-07-26T19:54:54.204Z,42.20
2022-07-26T19:57:22.205Z,41.90
2022-07-26T19:59:50.107Z,42.45
2022-07-26T20:02:18.781Z,42.43
2022-07-26T20:04:46.684Z,42.88
2022-07-26T20:07:19.634Z,42.87
2022-07-26T20:09:50.533Z,43.13
2022-07-26T20:12:19.477Z,43.89
2022-07-26T20:14:47.347Z,43.69
2022-07-26T20:17:15.523Z,44.15
2022-07-26T20:19:43.186Z,44.09
2022-07-26T20:22:11.398Z,44.62
2022-07-26T20:24:40.178Z,44.76
2022-07-26T20:27:08.165Z,44.64
2022-07-26T20:29:36.479Z,44.67
2022-07-26T20:32:04.759Z,44.92
2022-07-26T20:34:32.299Z,44.92
2022-07-26T20:36:59.848Z,45.02
2022-07-26T20:39:27.942Z,45.32
2022-07-26T20:41:55.628Z,45.36
2022-07-26T20:44:28.163Z,45.80
2022-07-26T20:46:56.403Z,46.10
2022-07-26T20:49:24.011Z,46.17
2022-07-26T20:51:51.724Z,46.19
2022-07-26T20:54:19.881Z,46.32
2022-07-26T20:56:47.748Z,46.81
2022-07-26T20:59:15.657Z,46.62
2022-07-26T21:01:44.409Z,46.96
2022-07-26T21:04:12.527Z,47.41
2022-07-26T21:06:40.775Z,47.38
2022-07-26T21:09:10.689Z,47.19
2022-07-26T21:11:39.600Z,47.43
2022-07-26T21:14:07.264Z,47.92
2022-07-26T21:16:37.205Z,47.98
2022-07-26T21:19:05.626Z,47.93
2022-07-26T21:21:34.277Z,48.10
2022-07-26T21:24:02.575Z,47.96
2022-07-26T21:26:30.195Z,48.09
2022-07-26T21:28:58.047Z,48.13
2022-07-26T21:31:26.658Z,48.17
2022-07-26T21:33:54.122Z,48.04
2022-07-26T21:36:21.851Z,48.51
2022-07-26T21:38:49.608Z,48.26
2022-07-26T21:41:17.100Z,48.60
2022-07-26T21:43:44.585Z,48.48
2022-07-26T21:46:14.041Z,48.35
2022-07-26T21:48:41.896Z,48.59
2022-07-26T21:51:09.542Z,48.87
2022-07-26T21:53:37.329Z,48.74
2022-07-26T21:56:05.666Z,48.62
2022-07-26T21:58:36.676Z,49.10
2022-07-26T22:01:07.591Z,49.23
2022-07-26T22:03:36.632Z,49.17
2022-07-26T22:06:04.680Z,49.50
2022-07-26T22:08:33.082Z,49.43
2022-07-26T22:11:00.877Z,49.78
2022-07-26T22:13:28.437Z,49.50
2022-07-26T22:15:56.315Z,49.57
2022-07-26T22:18:23.921Z,49.86
2022-07-26T22:20:51.797Z,49.94
2022-07-26T22:23:22.773Z,49.58
2022-07-26T22:25:50.272Z,49.84
2022-07-26T22:28:18.689Z,49.95
2022-07-26T22:30:46.823Z,49.71
2022-07-26T22:33:14.485Z,49.77
2022-07-26T22:35:41.981Z,49.63
2022-07-26T22:38:11.509Z,49.68
2022-07-26T22:40:41.321Z,50.58
2022-07-26T22:43:10.162Z,50.72
2022-07-26T22:45:39.514Z,50.94
2022-07-26T22:48:09.444Z,50.97
2022-07-26T22:50:37.757Z,51.51
2022-07-26T22:53:05.810Z,50.90
2022-07-26T22:55:33.350Z,51.23
2022-07-26T22:58:01.651Z,51.28
2022-07-26T23:00:29.551Z,51.39
2022-07-26T23:02:57.097Z,51.30
2022-07-26T23:05:30.716Z,51.34
2022-07-26T23:08:36.250Z,51.41
2022-07-26T23:11:00.332Z,51.88
2022-07-26T23:13:28.109Z,51.77
2022-07-26T23:16:00.310Z,52.54
2022-07-26T23:18:29.258Z,52.64
2022-07-26T23:20:57.403Z,52.86
2022-07-26T23:23:25.417Z,52.77
2022-07-26T23:25:59.352Z,52.89
2022-07-26T23:28:37.454Z,53.24
2022-07-26T23:31:11.603Z,53.21
2022-07-26T23:33:51.731Z,53.24
2022-07-26T23:36:27.627Z,53.83
2022-07-26T23:38:57.991Z,54.21
2022-07-26T23:41:27.046Z,53.65
2022-07-26T23:43:54.813Z,53.90
2022-07-26T23:46:23.800Z,54.04
2022-07-26T23:48:52.540Z,54.26
2022-07-26T23:51:20.726Z,54.42
2022-07-26T23:53:48.531Z,54.99
2022-07-26T23:56:16.956Z,55.01
2022-07-26T23:58:45.135Z,55.16
